Aérodrome :
LOGIN :

S'inscrire | Disclaimer

   EN    FR    IT 

 










Légende :    VFR   VFR Marginal   IFR   IFR Intensif   IFR Très Intensif
Visi : 
Plafond : 
>= 8 km
>= 3000ft
5 à 8 km
1000 à 3000 ft
1500m à 5 km
500 à 1000 ft
800 à 1500m
200 à 500 ft
< 800m
< 200 ft
Symboles :   Orages  Brouillard  Fortes neiges  Fortes précipitations  Vent > 20 kt
SIGMETs :   Divers  Orages  Givrage  Turbulence  Onde Orograph.  Cendres Volcan.






- Altitude de l'aérodrome : 370 ft


EBBE - Beauvechain AB

DERNIER METAR :
  • 272025Z AUTO 29006KT 9999 -DZ FEW029/// SCT036/// BKN045/// 03/01 Q1009 BLU

METARs EXPIRÉS :
  • 271955Z AUTO 31010KT 9999 FEW012/// SCT027/// BKN042/// 02/01 Q1008 BLU
  • 271915Z AUTO 30011G22KT 9000 -RA FEW006/// SCT021/// BKN032/// 02/02 Q1007 WHT
  • 271855Z AUTO 31010KT 9999 FEW005/// SCT007/// BKN010/// 02/01 Q1006 GRN
  • 271833Z AUTO 31008KT 6000 -RA SCT006/// BKN009/// BKN014/// 02/02 Q1005 YLO
  • 271755Z AUTO 30011KT 7000 DZ SCT006/// BKN008/// BKN020/// 01/01 Q1003 YLO

TAF AMD TAF EBBE
Valide du 27 à 19h jusqu'au 28 à 07h UTC


271441Z 2719/2807 30015KT 9999 SCT010 BKN015
PROB40
TEMPO 2719/2720 30020G30KT 2000 -SHSNRA SCT006 SCT008 BKN012
BECMG 2720/2722 27010KT FEW020
BECMG 2804/2806 22007KT



MET'MAP, la Météo Aéronautique d'un coup d'oeil ! - Copyright ORBIFLY Décembre 2007 - Disclaimer

ORBIFLY MET'MAP TEAM :

Programmation & Développement : Alexandra Zaïnal
Sur une idée originale de : Baudouin d'Aumeries
Assistance à la programmation : Marc-Olivier Méhu
Soutien technique & logistique : Manuel Goepfert

Contact : metmap@orbifly.com




SOURCES & CREDITS :

   NOAA